createdAt,value
2023-05-02T00:00:57.503Z,1008.38
2023-05-02T00:01:57.534Z,1008.35
2023-05-02T00:02:57.708Z,1008.39
2023-05-02T00:03:57.553Z,1008.35
2023-05-02T00:04:57.462Z,1008.38
2023-05-02T00:05:57.458Z,1008.34
2023-05-02T00:06:57.549Z,1008.36
2023-05-02T00:07:57.428Z,1008.37
2023-05-02T00:08:57.435Z,1008.37
2023-05-02T00:09:57.528Z,1008.35
2023-05-02T00:10:57.398Z,1008.34
2023-05-02T00:11:57.402Z,1008.35
2023-05-02T00:12:57.376Z,1008.37
2023-05-02T00:13:57.366Z,1008.36
2023-05-02T00:14:57.355Z,1008.39
2023-05-02T00:15:57.341Z,1008.37
2023-05-02T00:16:57.438Z,1008.33
2023-05-02T00:17:57.378Z,1008.33
2023-05-02T00:18:57.332Z,1008.30
2023-05-02T00:19:57.571Z,1008.31
2023-05-02T00:20:57.281Z,1008.36
2023-05-02T00:21:57.319Z,1008.35
2023-05-02T00:22:57.362Z,1008.32
2023-05-02T00:23:57.253Z,1008.33
2023-05-02T00:24:57.242Z,1008.30
2023-05-02T00:25:57.258Z,1008.29
2023-05-02T00:26:57.242Z,1008.29
2023-05-02T00:27:57.211Z,1008.25
2023-05-02T00:28:57.198Z,1008.30
2023-05-02T00:29:57.341Z,1008.30
2023-05-02T00:30:57.181Z,1008.32
2023-05-02T00:31:57.187Z,1008.30
2023-05-02T00:32:57.186Z,1008.31
2023-05-02T00:33:57.146Z,1008.28
2023-05-02T00:34:57.147Z,1008.29
2023-05-02T00:35:57.124Z,1008.26
2023-05-02T00:36:57.121Z,1008.26
2023-05-02T00:37:57.098Z,1008.25
2023-05-02T00:38:57.092Z,1008.26
2023-05-02T00:39:57.254Z,1008.29
2023-05-02T00:40:57.157Z,1008.25
2023-05-02T00:41:57.068Z,1008.27
2023-05-02T00:42:57.038Z,1008.27
2023-05-02T00:43:57.052Z,1008.28
2023-05-02T00:44:57.039Z,1008.29
2023-05-02T00:45:57.106Z,1008.32
2023-05-02T00:46:57.272Z,1008.27
2023-05-02T00:47:57.028Z,1008.26
2023-05-02T00:48:56.984Z,1008.31
2023-05-02T00:49:57.049Z,1008.28
2023-05-02T00:50:57.086Z,1008.24
2023-05-02T00:51:56.958Z,1008.25
2023-05-02T00:52:56.969Z,1008.26
2023-05-02T00:53:56.934Z,1008.28
2023-05-02T00:54:56.912Z,1008.28
2023-05-02T00:55:56.902Z,1008.29
2023-05-02T00:56:56.886Z,1008.29
2023-05-02T00:57:56.923Z,1008.36
2023-05-02T00:58:56.874Z,1008.35
2023-05-02T00:59:56.954Z,1008.32
2023-05-02T01:00:56.848Z,1008.34
2023-05-02T01:01:56.898Z,1008.31
2023-05-02T01:02:56.881Z,1008.26
2023-05-02T01:03:56.927Z,1008.29
2023-05-02T01:04:56.809Z,1008.30
2023-05-02T01:05:56.789Z,1008.26
2023-05-02T01:06:56.804Z,1008.31
2023-05-02T01:07:56.766Z,1008.31
2023-05-02T01:08:56.752Z,1008.30
2023-05-02T01:09:56.827Z,1008.25
2023-05-02T01:10:56.729Z,1008.24
2023-05-02T01:11:56.731Z,1008.28
2023-05-02T01:12:56.708Z,1008.27
2023-05-02T01:13:56.703Z,1008.28
2023-05-02T01:14:56.695Z,1008.30
2023-05-02T01:15:56.708Z,1008.31
2023-05-02T01:16:56.684Z,1008.34
2023-05-02T01:17:56.785Z,1008.31
2023-05-02T01:18:56.641Z,1008.28
2023-05-02T01:19:56.653Z,1008.27
2023-05-02T01:20:56.618Z,1008.34
2023-05-02T01:21:56.623Z,1008.32
2023-05-02T01:22:56.619Z,1008.32
2023-05-02T01:23:56.587Z,1008.33
2023-05-02T01:24:56.575Z,1008.38
2023-05-02T01:25:56.576Z,1008.35
2023-05-02T01:26:56.563Z,1008.37
2023-05-02T01:27:56.546Z,1008.38
2023-05-02T01:28:56.530Z,1008.37
2023-05-02T01:29:56.584Z,1008.37
2023-05-02T01:30:56.531Z,1008.40
2023-05-02T01:31:56.616Z,1008.43
2023-05-02T01:32:56.531Z,1008.44
2023-05-02T01:33:56.480Z,1008.43
2023-05-02T01:34:56.462Z,1008.47
2023-05-02T01:35:56.462Z,1008.48
2023-05-02T01:36:56.482Z,1008.45
2023-05-02T01:37:56.433Z,1008.41
2023-05-02T01:38:56.439Z,1008.51
2023-05-02T01:39:56.459Z,1008.47
2023-05-02T01:40:56.411Z,1008.47
2023-05-02T01:41:56.414Z,1008.48
2023-05-02T01:42:56.378Z,1008.49
2023-05-02T01:43:56.371Z,1008.48
2023-05-02T01:44:56.360Z,1008.55
2023-05-02T01:45:56.378Z,1008.50
2023-05-02T01:46:56.368Z,1008.60
2023-05-02T01:47:56.373Z,1008.67
2023-05-02T01:48:56.318Z,1008.60
2023-05-02T01:49:56.362Z,1008.63
2023-05-02T01:50:56.304Z,1008.70
2023-05-02T01:51:56.312Z,1008.69
2023-05-02T01:52:56.276Z,1008.69
2023-05-02T01:53:56.262Z,1008.69
2023-05-02T01:54:56.267Z,1008.70
2023-05-02T01:55:56.240Z,1008.71
2023-05-02T01:56:56.255Z,1008.67
2023-05-02T01:57:56.227Z,1008.69
2023-05-02T01:58:56.206Z,1008.73
2023-05-02T01:59:56.195Z,1008.72
2023-05-02T02:00:56.264Z,1008.72
2023-05-02T02:01:56.205Z,1008.70
2023-05-02T02:02:56.260Z,1008.68
2023-05-02T02:03:56.205Z,1008.71
2023-05-02T02:04:56.151Z,1008.65
2023-05-02T02:05:56.149Z,1008.73
2023-05-02T02:06:56.132Z,1008.72
2023-05-02T02:07:56.161Z,1008.67
2023-05-02T02:08:56.101Z,1008.72
2023-05-02T02:09:56.093Z,1008.68
2023-05-02T02:10:56.091Z,1008.68
2023-05-02T02:11:56.082Z,1008.67
2023-05-02T02:12:56.071Z,1008.68
2023-05-02T02:13:56.046Z,1008.70
2023-05-02T02:14:56.030Z,1008.71
2023-05-02T02:15:56.040Z,1008.71
2023-05-02T02:16:56.109Z,1008.75
2023-05-02T02:17:56.009Z,1008.79
2023-05-02T02:18:55.986Z,1008.81
2023-05-02T02:19:55.976Z,1008.78
2023-05-02T02:20:55.985Z,1008.82
2023-05-02T02:21:55.988Z,1008.84
2023-05-02T02:22:55.942Z,1008.81
2023-05-02T02:23:55.929Z,1008.81
2023-05-02T02:24:55.919Z,1008.82
2023-05-02T02:25:55.920Z,1008.86
2023-05-02T02:26:55.940Z,1008.93
2023-05-02T02:27:55.891Z,1008.90
2023-05-02T02:28:55.876Z,1008.93
2023-05-02T02:29:55.874Z,1008.90
2023-05-02T02:30:55.880Z,1008.96
2023-05-02T02:31:55.865Z,1008.97
2023-05-02T02:32:55.881Z,1008.97
2023-05-02T02:33:55.826Z,1009.00
2023-05-02T02:34:55.815Z,1008.97
2023-05-02T02:35:55.798Z,1009.04
2023-05-02T02:36:55.800Z,1009.03
2023-05-02T02:37:55.779Z,1009.06
2023-05-02T02:38:55.764Z,1009.06
2023-05-02T02:39:55.753Z,1009.09
2023-05-02T02:40:55.752Z,1009.10
2023-05-02T02:41:55.733Z,1009.11
2023-05-02T02:42:55.748Z,1009.16
2023-05-02T02:43:55.713Z,1009.22
2023-05-02T02:44:55.699Z,1009.19
2023-05-02T02:45:55.743Z,1009.20
2023-05-02T02:46:55.674Z,1009.20
2023-05-02T02:47:55.711Z,1009.20
2023-05-02T02:48:55.656Z,1009.17
2023-05-02T02:49:55.651Z,1009.21
2023-05-02T02:50:55.650Z,1009.23
2023-05-02T02:51:55.637Z,1009.24
2023-05-02T02:52:55.606Z,1009.23
2023-05-02T02:53:55.602Z,1009.28
2023-05-02T02:54:55.602Z,1009.24
2023-05-02T02:55:55.603Z,1009.23
2023-05-02T02:56:55.562Z,1009.27
2023-05-02T02:57:55.563Z,1009.26
2023-05-02T02:58:55.575Z,1009.29
2023-05-02T02:59:55.535Z,1009.35
2023-05-02T03:00:55.530Z,1009.32
2023-05-02T03:01:55.585Z,1009.39
2023-05-02T03:02:55.528Z,1009.37
2023-05-02T03:03:55.528Z,1009.43
2023-05-02T03:04:55.474Z,1009.43
2023-05-02T03:05:55.473Z,1009.41
2023-05-02T03:06:55.533Z,1009.49
2023-05-02T03:07:55.445Z,1009.50
2023-05-02T03:08:55.429Z,1009.61
2023-05-02T03:09:55.427Z,1009.62
2023-05-02T03:10:55.429Z,1009.69
2023-05-02T03:11:55.409Z,1009.69
2023-05-02T03:12:55.387Z,1009.73
2023-05-02T03:13:55.377Z,1009.74
2023-05-02T03:14:55.383Z,1009.76
2023-05-02T03:15:55.470Z,1009.77
2023-05-02T03:16:55.351Z,1009.80
2023-05-02T03:17:55.401Z,1009.80
2023-05-02T03:18:55.314Z,1009.82
2023-05-02T03:19:55.337Z,1009.80
2023-05-02T03:20:55.308Z,1009.85
2023-05-02T03:21:55.288Z,1009.85
2023-05-02T03:22:55.288Z,1009.86
2023-05-02T03:23:55.263Z,1009.91
2023-05-02T03:24:55.271Z,1009.89
2023-05-02T03:25:55.255Z,1009.95
2023-05-02T03:26:55.247Z,1009.93
2023-05-02T03:27:55.231Z,1009.98
2023-05-02T03:28:55.212Z,1009.98
2023-05-02T03:29:55.198Z,1010.03
2023-05-02T03:30:55.244Z,1009.99
2023-05-02T03:31:55.243Z,1010.00
2023-05-02T03:32:55.213Z,1010.03
2023-05-02T03:33:55.162Z,1009.97
2023-05-02T03:34:55.146Z,1009.95
2023-05-02T03:35:55.146Z,1009.97
2023-05-02T03:36:55.129Z,1009.94
2023-05-02T03:37:55.115Z,1009.97
2023-05-02T03:38:55.119Z,1009.99
2023-05-02T03:39:55.129Z,1010.00
2023-05-02T03:40:55.084Z,1010.02
2023-05-02T03:41:55.086Z,1010.04
2023-05-02T03:42:55.088Z,1010.04
2023-05-02T03:43:55.076Z,1010.03
2023-05-02T03:44:55.039Z,1010.04
2023-05-02T03:45:55.210Z,1010.09
2023-05-02T03:46:55.073Z,1010.04
2023-05-02T03:47:55.119Z,1010.04
2023-05-02T03:48:54.990Z,1010.08
2023-05-02T03:49:54.979Z,1010.04
2023-05-02T03:50:55.004Z,1010.07
2023-05-02T03:51:54.969Z,1010.09
2023-05-02T03:52:54.949Z,1010.09
2023-05-02T03:53:54.943Z,1010.11
2023-05-02T03:54:54.927Z,1010.15
2023-05-02T03:55:54.911Z,1010.15
2023-05-02T03:56:54.915Z,1010.21
2023-05-02T03:57:54.891Z,1010.24
2023-05-02T03:58:54.891Z,1010.24
2023-05-02T03:59:54.868Z,1010.22
2023-05-02T04:00:54.866Z,1010.25
2023-05-02T04:01:54.940Z,1010.29
2023-05-02T04:02:54.883Z,1010.31
2023-05-02T04:03:54.862Z,1010.28
2023-05-02T04:04:54.824Z,1010.26
2023-05-02T04:05:54.804Z,1010.27
2023-05-02T04:06:54.932Z,1010.28
2023-05-02T04:07:54.782Z,1010.34
2023-05-02T04:08:54.776Z,1010.35
2023-05-02T04:09:54.787Z,1010.39
2023-05-02T04:10:54.751Z,1010.41
2023-05-02T04:11:54.780Z,1010.43
2023-05-02T04:12:54.727Z,1010.41
2023-05-02T04:13:54.793Z,1010.43
2023-05-02T04:14:54.705Z,1010.47
2023-05-02T04:15:54.692Z,1010.47
2023-05-02T04:16:54.728Z,1010.48
2023-05-02T04:17:54.689Z,1010.50
2023-05-02T04:18:54.701Z,1010.48
2023-05-02T04:19:54.651Z,1010.54
2023-05-02T04:20:54.640Z,1010.56
2023-05-02T04:21:54.652Z,1010.56
2023-05-02T04:22:54.620Z,1010.52
2023-05-02T04:23:54.606Z,1010.49
2023-05-02T04:24:54.601Z,1010.50
2023-05-02T04:25:54.585Z,1010.59
2023-05-02T04:26:54.589Z,1010.61
2023-05-02T04:27:54.576Z,1010.61
2023-05-02T04:28:54.552Z,1010.64
2023-05-02T04:29:54.538Z,1010.62
2023-05-02T04:30:54.586Z,1010.66
2023-05-02T04:31:54.515Z,1010.71
2023-05-02T04:32:54.533Z,1010.70
2023-05-02T04:33:54.495Z,1010.70
2023-05-02T04:34:54.506Z,1010.72
2023-05-02T04:35:54.491Z,1010.72
2023-05-02T04:36:54.460Z,1010.69
2023-05-02T04:37:54.464Z,1010.69
2023-05-02T04:38:54.435Z,1010.68
2023-05-02T04:39:54.434Z,1010.64
2023-05-02T04:40:54.451Z,1010.65
2023-05-02T04:41:54.430Z,1010.71
2023-05-02T04:42:54.398Z,1010.71
2023-05-02T04:43:54.390Z,1010.70
2023-05-02T04:44:54.390Z,1010.69
2023-05-02T04:45:54.408Z,1010.72
2023-05-02T04:46:54.394Z,1010.74
2023-05-02T04:47:54.385Z,1010.76
2023-05-02T04:48:54.328Z,1010.75
2023-05-02T04:49:54.349Z,1010.77
2023-05-02T04:50:54.365Z,1010.81
2023-05-02T04:51:54.293Z,1010.84
2023-05-02T04:52:54.287Z,1010.88
2023-05-02T04:53:54.280Z,1010.88
2023-05-02T04:54:54.259Z,1010.92
2023-05-02T04:55:54.268Z,1010.89
2023-05-02T04:56:54.276Z,1010.92
2023-05-02T04:57:54.231Z,1010.93
2023-05-02T04:58:54.219Z,1010.95
2023-05-02T04:59:54.206Z,1010.98
2023-05-02T05:00:54.213Z,1011.01
2023-05-02T05:01:54.261Z,1011.01
2023-05-02T05:02:54.218Z,1011.03
2023-05-02T05:03:54.202Z,1010.99
2023-05-02T05:04:54.211Z,1011.05
2023-05-02T05:05:54.139Z,1011.10
2023-05-02T05:06:54.243Z,1011.15
2023-05-02T05:07:54.123Z,1011.16
2023-05-02T05:08:54.126Z,1011.19
2023-05-02T05:09:54.107Z,1011.20
2023-05-02T05:10:54.098Z,1011.21
2023-05-02T05:11:54.075Z,1011.21
2023-05-02T05:12:54.065Z,1011.25
2023-05-02T05:13:54.050Z,1011.25
2023-05-02T05:14:54.061Z,1011.26
2023-05-02T05:15:54.057Z,1011.29
2023-05-02T05:16:54.034Z,1011.31
2023-05-02T05:17:54.036Z,1011.30
2023-05-02T05:18:54.010Z,1011.31
2023-05-02T05:19:54.008Z,1011.31
2023-05-02T05:20:53.975Z,1011.33
2023-05-02T05:21:53.969Z,1011.33
2023-05-02T05:22:53.980Z,1011.37
2023-05-02T05:23:53.943Z,1011.41
2023-05-02T05:24:53.950Z,1011.37
2023-05-02T05:25:53.928Z,1011.41
2023-05-02T05:26:53.913Z,1011.47
2023-05-02T05:27:53.901Z,1011.43
2023-05-02T05:28:53.888Z,1011.51
2023-05-02T05:29:53.911Z,1011.48
2023-05-02T05:30:53.880Z,1011.44
2023-05-02T05:31:53.920Z,1011.51
2023-05-02T05:32:53.892Z,1011.47
2023-05-02T05:33:53.898Z,1011.53
2023-05-02T05:34:53.870Z,1011.56
2023-05-02T05:35:53.813Z,1011.61
2023-05-02T05:36:53.805Z,1011.61
2023-05-02T05:37:53.807Z,1011.68
2023-05-02T05:38:53.796Z,1011.68
2023-05-02T05:39:53.797Z,1011.64
2023-05-02T05:40:53.759Z,1011.63
2023-05-02T05:41:53.746Z,1011.63
2023-05-02T05:42:53.750Z,1011.68
2023-05-02T05:43:53.720Z,1011.72
2023-05-02T05:44:53.744Z,1011.70
2023-05-02T05:45:53.700Z,1011.69
2023-05-02T05:46:53.701Z,1011.72
2023-05-02T05:47:53.704Z,1011.78
2023-05-02T05:48:53.667Z,1011.82
2023-05-02T05:49:53.677Z,1011.80
2023-05-02T05:50:53.648Z,1011.77
2023-05-02T05:51:53.637Z,1011.78
2023-05-02T05:52:53.625Z,1011.85
2023-05-02T05:53:53.611Z,1011.85
2023-05-02T05:54:53.676Z,1011.86
2023-05-02T05:55:53.600Z,1011.82
2023-05-02T05:56:53.582Z,1011.84
2023-05-02T05:57:53.570Z,1011.86
2023-05-02T05:58:53.559Z,1011.89
2023-05-02T05:59:53.580Z,1011.89
2023-05-02T06:00:53.567Z,1011.93
2023-05-02T06:01:53.525Z,1011.91
2023-05-02T06:02:53.597Z,1011.94
2023-05-02T06:03:53.586Z,1011.93
2023-05-02T06:04:53.554Z,1011.95
2023-05-02T06:05:53.481Z,1012.01
2023-05-02T06:06:53.671Z,1012.03
2023-05-02T06:07:53.457Z,1012.09
2023-05-02T06:08:53.466Z,1012.10
2023-05-02T06:09:53.452Z,1012.09
2023-05-02T06:10:53.459Z,1012.10
2023-05-02T06:11:53.418Z,1012.13
2023-05-02T06:12:53.407Z,1012.15
2023-05-02T06:13:53.398Z,1012.17
2023-05-02T06:14:53.404Z,1012.13
2023-05-02T06:15:53.425Z,1012.19
2023-05-02T06:16:53.379Z,1012.25
2023-05-02T06:17:53.430Z,1012.26
2023-05-02T06:18:53.343Z,1012.29
2023-05-02T06:19:53.334Z,1012.35
2023-05-02T06:20:53.355Z,1012.36
2023-05-02T06:21:53.310Z,1012.36
2023-05-02T06:22:53.307Z,1012.39
2023-05-02T06:23:53.289Z,1012.36
2023-05-02T06:24:53.295Z,1012.38
2023-05-02T06:25:53.282Z,1012.41
2023-05-02T06:26:53.274Z,1012.42
2023-05-02T06:27:53.247Z,1012.34
2023-05-02T06:28:53.239Z,1012.48
2023-05-02T06:29:53.254Z,1012.47
2023-05-02T06:30:53.224Z,1012.53
2023-05-02T06:31:53.216Z,1012.48
2023-05-02T06:32:53.216Z,1012.46
2023-05-02T06:33:53.173Z,1012.49
2023-05-02T06:34:53.184Z,1012.48
2023-05-02T06:35:53.158Z,1012.52
2023-05-02T06:36:53.145Z,1012.57
2023-05-02T06:37:53.138Z,1012.58
2023-05-02T06:38:53.136Z,1012.60
2023-05-02T06:39:53.109Z,1012.58
2023-05-02T06:40:53.099Z,1012.61
2023-05-02T06:41:53.086Z,1012.59
2023-05-02T06:42:53.096Z,1012.60
2023-05-02T06:43:53.114Z,1012.63
2023-05-02T06:44:53.070Z,1012.68
2023-05-02T06:45:53.044Z,1012.59
2023-05-02T06:46:53.071Z,1012.70
2023-05-02T06:47:53.111Z,1012.71
2023-05-02T06:48:53.011Z,1012.72
2023-05-02T06:49:53.019Z,1012.74
2023-05-02T06:50:53.008Z,1012.78
2023-05-02T06:51:52.981Z,1012.80
2023-05-02T06:52:52.972Z,1012.84
2023-05-02T06:53:52.956Z,1012.86
2023-05-02T06:54:52.962Z,1012.92
2023-05-02T06:55:52.964Z,1012.91
2023-05-02T06:56:52.957Z,1013.00
2023-05-02T06:57:52.914Z,1012.95
2023-05-02T06:58:52.932Z,1012.97
2023-05-02T06:59:52.886Z,1013.05
2023-05-02T07:00:52.924Z,1013.10
2023-05-02T07:01:52.877Z,1013.11
2023-05-02T07:02:52.910Z,1013.12
2023-05-02T07:03:52.918Z,1013.16
2023-05-02T07:04:52.847Z,1013.18
2023-05-02T07:05:52.837Z,1013.22
2023-05-02T07:06:52.987Z,1013.24
2023-05-02T07:07:52.804Z,1013.27
2023-05-02T07:08:52.812Z,1013.31
2023-05-02T07:09:52.799Z,1013.25
2023-05-02T07:10:52.771Z,1013.31
2023-05-02T07:11:52.758Z,1013.31
2023-05-02T07:12:52.749Z,1013.28
2023-05-02T07:13:52.737Z,1013.37
2023-05-02T07:14:52.776Z,1013.35
2023-05-02T07:15:52.726Z,1013.32
2023-05-02T07:16:52.789Z,1013.36
2023-05-02T07:17:52.824Z,1013.34
2023-05-02T07:18:52.686Z,1013.38
2023-05-02T07:19:52.695Z,1013.41
2023-05-02T07:20:52.674Z,1013.40
2023-05-02T07:21:52.650Z,1013.39
2023-05-02T07:22:52.662Z,1013.38
2023-05-02T07:23:52.625Z,1013.41
2023-05-02T07:24:52.632Z,1013.37
2023-05-02T07:25:52.611Z,1013.36
2023-05-02T07:26:52.605Z,1013.31
2023-05-02T07:27:52.590Z,1013.40
2023-05-02T07:28:52.581Z,1013.41
2023-05-02T07:29:52.586Z,1013.40
2023-05-02T07:30:52.597Z,1013.41
2023-05-02T07:31:52.577Z,1013.43
2023-05-02T07:32:52.600Z,1013.47
2023-05-02T07:33:52.517Z,1013.50
2023-05-02T07:34:52.519Z,1013.52
2023-05-02T07:35:52.503Z,1013.47
2023-05-02T07:36:52.486Z,1013.46
2023-05-02T07:37:52.477Z,1013.46
2023-05-02T07:38:52.467Z,1013.55
2023-05-02T07:39:52.494Z,1013.54
2023-05-02T07:40:52.448Z,1013.54
2023-05-02T07:41:52.443Z,1013.50
2023-05-02T07:42:52.436Z,1013.56
2023-05-02T07:43:52.450Z,1013.57
2023-05-02T07:44:52.426Z,1013.56
2023-05-02T07:45:52.423Z,1013.57
2023-05-02T07:46:52.401Z,1013.58
2023-05-02T07:48:00.251Z,1013.59
2023-05-02T07:48:52.403Z,1013.63
2023-05-02T07:49:52.360Z,1013.67
2023-05-02T07:50:52.341Z,1013.64
2023-05-02T07:51:52.337Z,1013.67
2023-05-02T07:52:52.324Z,1013.74
2023-05-02T07:53:52.315Z,1013.72
2023-05-02T07:54:52.324Z,1013.67
2023-05-02T07:55:52.287Z,1013.69
2023-05-02T07:56:52.277Z,1013.72
2023-05-02T07:57:52.260Z,1013.73
2023-05-02T07:58:52.263Z,1013.76
2023-05-02T07:59:52.240Z,1013.78
2023-05-02T08:00:52.226Z,1013.75
2023-05-02T08:01:52.231Z,1013.77
2023-05-02T08:02:52.349Z,1013.73
2023-05-02T08:03:52.697Z,1013.77
2023-05-02T08:04:52.209Z,1013.77
2023-05-02T08:05:52.176Z,1013.82
2023-05-02T08:06:52.280Z,1013.83
2023-05-02T08:07:52.164Z,1013.85
2023-05-02T08:08:52.181Z,1013.83
2023-05-02T08:09:52.129Z,1013.87
2023-05-02T08:10:52.117Z,1013.91
2023-05-02T08:11:52.107Z,1013.89
2023-05-02T08:12:52.106Z,1013.86
2023-05-02T08:13:52.112Z,1013.92
2023-05-02T08:14:52.071Z,1013.93
2023-05-02T08:15:52.084Z,1013.92
2023-05-02T08:16:52.173Z,1013.92
2023-05-02T08:17:52.077Z,1013.96
2023-05-02T08:18:52.061Z,1013.96
2023-05-02T08:19:52.036Z,1013.95
2023-05-02T08:20:52.010Z,1013.98
2023-05-02T08:21:52.000Z,1013.98
2023-05-02T08:23:00.185Z,1013.98
2023-05-02T08:23:51.999Z,1014.00
2023-05-02T08:24:51.961Z,1013.99
2023-05-02T08:25:51.961Z,1014.02
2023-05-02T08:26:51.943Z,1014.05
2023-05-02T08:27:51.978Z,1014.06
2023-05-02T08:28:51.946Z,1014.06
2023-05-02T08:29:51.920Z,1014.10
2023-05-02T08:30:51.897Z,1014.10
2023-05-02T08:31:51.919Z,1014.14
2023-05-02T08:32:51.903Z,1014.14
2023-05-02T08:33:51.887Z,1014.14
2023-05-02T08:34:51.920Z,1014.12
2023-05-02T08:35:51.847Z,1014.13
2023-05-02T08:36:51.835Z,1014.15
2023-05-02T08:37:51.823Z,1014.20
2023-05-02T08:38:51.856Z,1014.14
2023-05-02T08:39:51.802Z,1014.17
2023-05-02T08:40:51.802Z,1014.18
2023-05-02T08:41:51.793Z,1014.18
2023-05-02T08:42:51.773Z,1014.22
2023-05-02T08:43:51.779Z,1014.25
2023-05-02T08:44:51.790Z,1014.24
2023-05-02T08:45:51.741Z,1014.23
2023-05-02T08:46:51.761Z,1014.21
2023-05-02T08:47:51.736Z,1014.25
2023-05-02T08:48:51.701Z,1014.24
2023-05-02T08:49:51.693Z,1014.18
2023-05-02T08:50:51.739Z,1014.22
2023-05-02T08:51:51.678Z,1014.32
2023-05-02T08:52:51.677Z,1014.28
2023-05-02T08:53:51.650Z,1014.30
2023-05-02T08:54:51.632Z,1014.26
2023-05-02T08:55:51.622Z,1014.28
2023-05-02T08:56:51.612Z,1014.31
2023-05-02T08:57:58.732Z,1014.29
2023-05-02T08:58:51.609Z,1014.33
2023-05-02T08:59:51.585Z,1014.32
2023-05-02T09:00:51.617Z,1014.39
2023-05-02T09:01:51.559Z,1014.41
2023-05-02T09:02:51.690Z,1014.47
2023-05-02T09:03:51.561Z,1014.47
2023-05-02T09:04:51.523Z,1014.47
2023-05-02T09:05:51.512Z,1014.46
2023-05-02T09:06:51.558Z,1014.56
2023-05-02T09:07:51.659Z,1014.57
2023-05-02T09:08:51.727Z,1014.59
2023-05-02T09:09:51.472Z,1014.57
2023-05-02T09:10:59.402Z,1014.59
2023-05-02T09:11:51.446Z,1014.64
2023-05-02T09:12:51.434Z,1014.64
2023-05-02T09:13:51.521Z,1014.65
2023-05-02T09:14:51.410Z,1014.65
2023-05-02T09:15:51.406Z,1014.69
2023-05-02T09:16:51.447Z,1014.74
2023-05-02T09:17:51.403Z,1014.72
2023-05-02T09:18:51.391Z,1014.70
2023-05-02T09:19:51.359Z,1014.72
2023-05-02T09:20:51.346Z,1014.77
2023-05-02T09:21:51.347Z,1014.75
2023-05-02T09:22:51.377Z,1014.76
2023-05-02T09:23:51.331Z,1014.79
2023-05-02T09:24:51.303Z,1014.77
2023-05-02T09:25:51.293Z,1014.78
2023-05-02T09:26:51.297Z,1014.84
2023-05-02T09:27:51.273Z,1014.83
2023-05-02T09:28:51.388Z,1014.82
2023-05-02T09:29:51.248Z,1014.85
2023-05-02T09:30:51.277Z,1014.87
2023-05-02T09:31:56.039Z,1014.84
2023-05-02T09:32:52.286Z,1014.85
2023-05-02T09:33:51.235Z,1014.87
2023-05-02T09:34:51.191Z,1014.91
2023-05-02T09:35:51.190Z,1014.91
2023-05-02T09:36:51.204Z,1014.85
2023-05-02T09:37:51.174Z,1014.91
2023-05-02T09:38:51.182Z,1014.91
2023-05-02T09:39:51.138Z,1014.97
2023-05-02T09:40:51.131Z,1014.97
2023-05-02T09:41:51.125Z,1014.98
2023-05-02T09:42:51.103Z,1014.99
2023-05-02T09:43:51.109Z,1015.03
2023-05-02T09:44:51.079Z,1014.98
2023-05-02T09:45:51.158Z,1015.01
2023-05-02T09:46:51.062Z,1015.00
2023-05-02T09:47:51.077Z,1015.03
2023-05-02T09:48:51.071Z,1015.06
2023-05-02T09:49:51.037Z,1015.02
2023-05-02T09:50:51.015Z,1015.04
2023-05-02T09:51:51.016Z,1015.02
2023-05-02T09:52:50.992Z,1015.04
2023-05-02T09:53:51.002Z,1015.05
2023-05-02T09:54:50.999Z,1015.08
2023-05-02T09:55:50.962Z,1015.13
2023-05-02T09:56:50.950Z,1015.09
2023-05-02T09:57:50.937Z,1015.08
2023-05-02T09:58:50.960Z,1015.09
2023-05-02T09:59:50.916Z,1015.11
2023-05-02T10:00:50.918Z,1015.12
2023-05-02T10:01:50.928Z,1015.15
2023-05-02T10:02:50.896Z,1015.07
2023-05-02T10:03:50.900Z,1015.18
2023-05-02T10:04:50.886Z,1015.16
2023-05-02T10:05:50.854Z,1015.13
2023-05-02T10:06:50.935Z,1015.19
2023-05-02T10:07:50.832Z,1015.22
2023-05-02T10:08:50.821Z,1015.27
2023-05-02T10:09:50.841Z,1015.29
2023-05-02T10:10:50.812Z,1015.31
2023-05-02T10:11:50.806Z,1015.34
2023-05-02T10:12:50.776Z,1015.31
2023-05-02T10:13:50.767Z,1015.24
2023-05-02T10:14:50.790Z,1015.25
2023-05-02T10:15:50.783Z,1015.29
2023-05-02T10:16:50.730Z,1015.30
2023-05-02T10:17:50.894Z,1015.32
2023-05-02T10:18:50.719Z,1015.29
2023-05-02T10:19:50.704Z,1015.37
2023-05-02T10:20:50.685Z,1015.34
2023-05-02T10:21:50.676Z,1015.37
2023-05-02T10:22:50.673Z,1015.37
2023-05-02T10:23:50.652Z,1015.39
2023-05-02T10:24:50.677Z,1015.37
2023-05-02T10:25:50.634Z,1015.43
2023-05-02T10:26:50.668Z,1015.42
2023-05-02T10:27:50.613Z,1015.44
2023-05-02T10:28:50.603Z,1015.45
2023-05-02T10:29:50.610Z,1015.45
2023-05-02T10:30:50.582Z,1015.52
2023-05-02T10:31:50.599Z,1015.55
2023-05-02T10:32:50.577Z,1015.53
2023-05-02T10:33:50.549Z,1015.60
2023-05-02T10:34:50.552Z,1015.60
2023-05-02T10:35:50.523Z,1015.64
2023-05-02T10:36:50.506Z,1015.63
2023-05-02T10:37:50.523Z,1015.60
2023-05-02T10:38:50.490Z,1015.58
2023-05-02T10:39:50.477Z,1015.65
2023-05-02T10:40:50.726Z,1015.76
2023-05-02T10:41:50.459Z,1015.78
2023-05-02T10:42:50.492Z,1015.78
2023-05-02T10:43:50.432Z,1015.85
2023-05-02T10:44:50.438Z,1015.93
2023-05-02T10:45:50.428Z,1015.87
2023-05-02T10:46:50.407Z,1015.92
2023-05-02T10:47:50.421Z,1015.93
2023-05-02T10:48:50.379Z,1015.98
2023-05-02T10:49:50.364Z,1016.01
2023-05-02T10:50:50.352Z,1016.02
2023-05-02T10:51:50.347Z,1016.03
2023-05-02T10:52:50.345Z,1016.03
2023-05-02T10:53:50.321Z,1016.02
2023-05-02T10:54:50.320Z,1016.05
2023-05-02T10:55:50.295Z,1016.10
2023-05-02T10:56:50.290Z,1016.07
2023-05-02T10:57:50.284Z,1016.07
2023-05-02T10:58:50.279Z,1016.13
2023-05-02T10:59:50.267Z,1016.12
2023-05-02T11:00:50.253Z,1016.13
2023-05-02T11:01:50.254Z,1016.16
2023-05-02T11:02:50.358Z,1016.18
2023-05-02T11:03:50.218Z,1016.18
2023-05-02T11:04:50.205Z,1016.16
2023-05-02T11:05:50.185Z,1016.22
2023-05-02T11:06:50.201Z,1016.19
2023-05-02T11:07:50.166Z,1016.19
2023-05-02T11:08:50.160Z,1016.18
2023-05-02T11:09:50.159Z,1016.30
2023-05-02T11:10:50.136Z,1016.30
2023-05-02T11:11:50.121Z,1016.32
2023-05-02T11:12:50.114Z,1016.35
2023-05-02T11:13:50.113Z,1016.38
2023-05-02T11:14:50.109Z,1016.36
2023-05-02T11:15:50.084Z,1016.46
2023-05-02T11:16:50.118Z,1016.46
2023-05-02T11:17:50.085Z,1016.46
2023-05-02T11:18:50.044Z,1016.50
2023-05-02T11:19:50.050Z,1016.50
2023-05-02T11:20:50.025Z,1016.47
2023-05-02T11:21:50.012Z,1016.51
2023-05-02T11:22:50.051Z,1016.55
2023-05-02T11:23:49.998Z,1016.58
2023-05-02T11:24:50.004Z,1016.59
2023-05-02T11:25:49.970Z,1016.51
2023-05-02T11:26:49.960Z,1016.57
2023-05-02T11:27:49.947Z,1016.61
2023-05-02T11:28:49.938Z,1016.57
2023-05-02T11:29:49.933Z,1016.55
2023-05-02T11:30:49.940Z,1016.62
2023-05-02T11:31:50.052Z,1016.58
2023-05-02T11:32:50.059Z,1016.65
2023-05-02T11:33:49.880Z,1016.67
2023-05-02T11:34:49.995Z,1016.70
2023-05-02T11:35:49.864Z,1016.68
2023-05-02T11:36:49.852Z,1016.73
2023-05-02T11:37:49.850Z,1016.73
2023-05-02T11:38:49.824Z,1016.76
2023-05-02T11:39:49.830Z,1016.81
2023-05-02T11:40:49.807Z,1016.79
2023-05-02T11:41:49.807Z,1016.79
2023-05-02T11:42:49.781Z,1016.80
2023-05-02T11:43:49.772Z,1016.84
2023-05-02T11:44:49.810Z,1016.81
2023-05-02T11:45:49.768Z,1016.79
2023-05-02T11:46:49.815Z,1016.76
2023-05-02T11:47:49.773Z,1016.80
2023-05-02T11:48:49.713Z,1016.76
2023-05-02T11:49:49.708Z,1016.73
2023-05-02T11:50:50.813Z,1016.73
2023-05-02T11:51:49.684Z,1016.82
2023-05-02T11:52:49.686Z,1016.79
2023-05-02T11:53:49.680Z,1016.82
2023-05-02T11:54:49.660Z,1016.83
2023-05-02T11:55:49.648Z,1016.86
2023-05-02T11:56:49.634Z,1016.91
2023-05-02T11:57:49.621Z,1016.84
2023-05-02T11:58:49.656Z,1016.89
2023-05-02T11:59:49.598Z,1016.88
2023-05-02T12:00:49.607Z,1016.88
2023-05-02T12:01:49.576Z,1016.97
2023-05-02T12:02:49.651Z,1016.95
2023-05-02T12:03:49.856Z,1016.92
2023-05-02T12:04:49.551Z,1016.99
2023-05-02T12:05:49.571Z,1016.99